Data for 03/08/2010

Time Sea-Level Adjusted Pressure Absolute Pressure Temperature Relative Humidity Dew Point   
(mb) (inHg) (mb) (inHg) (C) (F) (%) (C) (F)
00:05 1008 29.77 837 24.72 2.1 35.8 56 -5.9 21.4
00:10 1008 29.77 837 24.72 1.7 35.1 58 -5.7 21.7
00:15 1008 29.77 837 24.72 1.6 35 58 -5.8 21.6
00:20 1008 29.77 837 24.72 1.7 35 60 -5.3 22.4
00:25 1008 29.77 837 24.72 1.5 34.7 59 -5.6 22
00:30 1008 29.77 837 24.72 0.9 33.7 62 -5.6 21.9
00:35 1008 29.77 837 24.72 0.6 33.2 62 -5.9 21.3
00:40 1008 29.77 837 24.72 0.6 33.1 63 -5.7 21.7
00:45 1008 29.77 837 24.72 0.2 32.3 67 -5.3 22.5
00:50 1008 29.77 837 24.72 -0.4 31.2 66 -6.1 21.1
00:55 1008 29.77 837 24.72 0.4 32.7 60 -6.5 20.4
01:00 1008 29.77 837 24.72 0.8 33.5 58 -6.5 20.3
01:05 1008 29.77 837 24.72 1.1 34 56 -6.7 20
01:10 1008 29.77 837 24.72 1.4 34.6 55 -6.7 19.9
01:15 1008 29.77 837 24.72 1.9 35.5 52 -7 19.5
01:20 1008 29.77 837 24.72 2.2 35.9 52 -6.6 20.2
01:25 1008 29.77 837 24.72 1.9 35.4 54 -6.5 20.4
01:30 1008 29.77 837 24.72 1.7 35 54 -6.6 20.1
01:35 1008 29.77 837 24.72 1.5 34.7 55 -6.6 20.1
01:40 1008 29.77 837 24.72 1.2 34.2 56 -6.5 20.2
01:45 1008 29.77 837 24.72 0.9 33.7 58 -6.4 20.5
01:50 1008 29.77 837 24.72 0.7 33.3 58 -6.5 20.3
01:55 1008 29.77 837 24.72 0.5 32.9 59 -6.6 20.1
02:00 1008 29.77 837 24.72 0.5 32.9 58 -6.7 19.9
02:05 1008 29.77 837 24.72 0.6 33.1 57 -7 19.4
02:10 1008 29.77 837 24.72 1.1 33.9 54 -7.1 19.2
02:15 1008 29.77 837 24.72 1.1 33.9 56 -6.8 19.7
02:20 1008 29.77 837 24.72 0.8 33.4 58 -6.6 20
02:25 1008 29.77 837 24.72 0.5 33 58 -6.8 19.8
02:30 1008 29.77 838 24.75 0.6 33.1 57 -7.1 19.3
02:35 1008 29.77 838 24.75 0.7 33.3 58 -6.7 20
02:40 1008 29.77 838 24.75 0.9 33.6 57 -6.7 19.9
02:45 1008 29.77 838 24.75 0.9 33.6 57 -6.8 19.8
02:50 1008 29.77 838 24.75 0.7 33.2 57 -7 19.5
02:55 1008 29.77 838 24.75 0.4 32.7 58 -7 19.5
03:00 1008 29.77 838 24.75 0.2 32.3 59 -7 19.5
03:05 1008 29.77 838 24.75 -0.1 31.7 58 -7.5 18.5
03:10 1008 29.77 837 24.72 0.4 32.7 56 -7.5 18.5
03:15 1008 29.77 838 24.75 0.1 32.2 58 -7.1 19.2
03:20 1008 29.77 838 24.75 -0.1 31.9 58 -7.5 18.6
03:25 1009 29.8 838 24.75 0.1 32.2 57 -7.5 18.5
03:30 1009 29.8 838 24.75 0.1 32.2 57 -7.3 18.8
03:35 1009 29.8 838 24.75 -0.3 31.5 59 -7.3 18.8
03:40 1009 29.8 838 24.75 -0.6 31 60 -7.4 18.6
03:45 1009 29.8 838 24.75 -0.7 30.7 59 -7.8 18
03:50 1009 29.8 838 24.75 -0.3 31.4 57 -7.9 17.8
03:55 1009 29.8 838 24.75 -0.5 31.2 59 -7.6 18.3
04:00 1009 29.8 838 24.75 -0.7 30.7 59 -7.8 17.9
04:05 1009 29.8 838 24.75 -0.8 30.6 58 -8 17.6
04:10 1009 29.8 838 24.75 -0.6 30.8 59 -7.7 18.1
04:15 1009 29.8 838 24.75 -0.4 31.4 58 -7.7 18.1
04:20 1009 29.8 838 24.75 -0.3 31.4 57 -7.7 18.1
04:25 1009 29.8 838 24.75 0.2 32.4 54 -8.1 17.5
04:30 1009 29.8 838 24.75 0.9 33.5 54 -7.4 18.7
04:35 1009 29.8 838 24.75 0.5 32.8 56 -7.4 18.6
04:40 1009 29.8 839 24.78 0.4 32.7 57 -7.2 19
04:45 1009 29.8 839 24.78 0.3 32.6 56 -7.5 18.5
04:50 1009 29.8 839 24.78 -0.1 31.9 58 -7.5 18.5
04:55 1010 29.83 839 24.78 -0.1 31.7 58 -7.5 18.5
05:00 1010 29.83 839 24.78 0.1 32.2 57 -7.4 18.6
05:05 1010 29.83 839 24.78 0.3 32.6 57 -7.1 19.2
05:10 1010 29.83 839 24.78 0.1 32.1 58 -7.1 19.1
05:15 1010 29.83 839 24.78 0.1 32.1 58 -7.4 18.8
05:20 1010 29.83 839 24.78 -0.3 31.4 59 -7.3 18.8
05:25 1010 29.83 839 24.78 -0.4 31.3 58 -7.6 18.3
05:30 1010 29.83 839 24.78 -0.5 31 61 -7.3 18.9
05:35 1010 29.83 839 24.78 -0.6 30.9 59 -7.6 18.3
05:40 1010 29.83 839 24.78 -0.7 30.8 60 -7.6 18.3
05:45 1010 29.83 839 24.78 -0.6 30.9 60 -7.4 18.6
05:50 1010 29.83 839 24.78 -0.7 30.8 59 -7.7 18.2
05:55 1010 29.83 839 24.78 -0.9 30.3 60 -7.8 18
06:00 1010 29.83 839 24.78 -1 30.2 61 -7.7 18.1
06:05 1010 29.83 839 24.78 -1.1 30 61 -7.8 18
06:10 1010 29.83 839 24.78 -1.3 29.6 62 -7.6 18.3
06:15 1010 29.83 839 24.78 -1.8 28.7 65 -7.5 18.4
06:20 1010 29.83 839 24.78 -2.4 27.8 67 -7.7 18.2
06:25 1010 29.83 839 24.78 -2.2 28.1 66 -7.7 18.2
06:30 1010 29.83 839 24.78 -1.9 28.6 65 -7.6 18.4
06:35 1010 29.83 839 24.78 -1.6 29.1 64 -7.6 18.3
06:40 1010 29.83 839 24.78 -1.9 28.7 66 -7.4 18.7
06:45 1010 29.83 839 24.78 -1.8 28.8 65 -7.5 18.4
06:50 1010 29.83 839 24.78 -2 28.3 65 -7.7 18.2
06:55 1010 29.83 839 24.78 -2.1 28.2 67 -7.5 18.5
07:00 1010 29.83 839 24.78 -2.2 28 67 -7.5 18.5
07:05 1010 29.83 839 24.78 -2.4 27.7 68 -7.5 18.6
07:10 1010 29.83 839 24.78 -2.4 27.7 68 -7.6 18.4
07:15 1010 29.83 839 24.78 -1.8 28.8 65 -7.5 18.5
07:20 1010 29.83 839 24.78 -1.6 29.1 64 -7.5 18.5
07:25 1010 29.83 839 24.78 -1.3 29.7 63 -7.5 18.5
07:30 1010 29.83 839 24.78 -0.9 30.4 61 -7.5 18.5
07:35 1010 29.83 839 24.78 -0.7 30.7 60 -7.5 18.6
07:40 1010 29.83 839 24.78 -0.6 30.8 60 -7.4 18.6
07:45 1010 29.83 839 24.78 -0.6 30.9 61 -7.3 18.8
07:50 1010 29.83 839 24.78 -0.5 31 60 -7.4 18.8
07:55 1010 29.83 839 24.78 -0.3 31.5 58 -7.5 18.5
08:00 1010 29.83 839 24.78 0 32.1 57 -7.4 18.7
08:05 1010 29.83 839 24.78 0.3 32.5 56 -7.5 18.6
08:10 1010 29.83 839 24.78 0.6 33.1 55 -7.4 18.6
08:15 1010 29.83 839 24.78 0.7 33.2 56 -7.2 19.1
08:20 1010 29.83 839 24.78 0.8 33.4 54 -7.4 18.6
08:25 1010 29.83 839 24.78 1.1 33.9 53 -7.4 18.6
08:30 1010 29.83 839 24.78 1.6 34.8 52 -7.2 19
08:35 1010 29.83 839 24.78 1.7 35.1 52 -7 19.4
08:40 1010 29.83 840 24.81 2.1 35.8 50 -7.3 18.9
08:45 1010 29.83 839 24.78 2.1 35.8 50 -7.3 18.8
08:50 1010 29.83 839 24.78 2 35.6 51 -7.2 19.1
08:55 1010 29.83 839 24.78 2.1 35.7 51 -7.2 19.1
09:00 1010 29.83 840 24.81 2.6 36.7 49 -7.2 19.1
09:05 1010 29.83 840 24.81 3.1 37.6 46 -7.4 18.7
09:10 1010 29.83 840 24.81 3.7 38.6 44 -7.3 18.8
09:15 1010 29.83 840 24.81 3.5 38.4 44 -7.5 18.4
09:20 1010 29.83 840 24.81 3.9 39.1 44 -7.1 19.1
09:25 1011 29.85 840 24.81 4.4 39.8 44 -6.7 19.9
09:30 1011 29.85 840 24.81 4.5 40.2 42 -7.2 19.1
09:35 1011 29.85 840 24.81 4.9 40.8 41 -7.3 18.8
09:40 1011 29.85 840 24.81 5.6 42 40 -7.2 19.1
09:45 1011 29.85 840 24.81 5.7 42.3 40 -7 19.5
09:50 1011 29.85 840 24.81 5.5 41.8 39 -7.4 18.6
09:55 1011 29.85 840 24.81 5.8 42.5 39 -7.2 19
10:00 1011 29.85 840 24.81 6.2 43.1 38 -7 19.5
10:05 1011 29.85 840 24.81 5.6 42 40 -7 19.4
10:10 1011 29.85 840 24.81 6 42.8 38 -7.2 19.1
10:15 1011 29.85 840 24.81 6.5 43.7 39 -6.5 20.3
10:20 1011 29.85 840 24.81 6.7 44.1 38 -6.8 19.8
10:25 1011 29.85 840 24.81 7.2 44.9 38 -6.2 20.9
10:30 1011 29.85 840 24.81 6.6 43.9 40 -6 21.3
10:35 1011 29.85 840 24.81 6.6 43.8 41 -5.6 21.8
10:40 1011 29.85 840 24.81 7 44.7 37 -6.8 19.7
10:45 1011 29.85 840 24.81 7.8 46.1 39 -5.4 22.3
10:50 1011 29.85 840 24.81 8.1 46.7 37 -5.8 21.6
10:55 1011 29.85 840 24.81 8.3 46.9 37 -5.5 22.2
11:00 1011 29.85 840 24.81 6.6 43.9 47 -4 24.9
11:05 1011 29.85 840 24.81 5.6 42.2 44 -5.8 21.6
11:10 1011 29.85 840 24.81 6.9 44.5 40 -5.7 21.7
11:15 1011 29.85 840 24.81 5.9 42.6 45 -5 22.9
11:20 1011 29.85 840 24.81 5.2 41.3 44 -6 21.2
11:25 1011 29.85 840 24.81 5.7 42.3 43 -6 21.2
11:30 1011 29.85 840 24.81 6.3 43.3 39 -6.6 20.1
11:35 1011 29.85 840 24.81 7 44.6 40 -5.5 22.1
11:40 1011 29.85 840 24.81 6 42.9 43 -5.5 22
11:45 1011 29.85 840 24.81 6.1 43 41 -6 21.1
11:50 1010 29.83 840 24.81 6.9 44.4 40 -5.7 21.7
11:55 1010 29.83 840 24.81 7.3 45.2 39 -5.8 21.6
12:00 1010 29.83 840 24.81 7.3 45.1 38 -6.1 21
12:05 1010 29.83 840 24.81 7.5 45.5 39 -5.5 22.1
12:10 1010 29.83 839 24.78 7.4 45.3 38 -6 21.2
12:15 1010 29.83 839 24.78 7.8 46 39 -5.5 22.2
12:20 1010 29.83 839 24.78 8.4 47.2 36 -5.8 21.5
12:25 1010 29.83 839 24.78 9 48.1 36 -5.4 22.3
12:30 1010 29.83 839 24.78 8.7 47.7 34 -6.2 20.8
12:35 1010 29.83 839 24.78 8.1 46.6 34 -6.9 19.7
12:40 1010 29.83 839 24.78 8.4 47.2 33 -7 19.4
12:45 1010 29.83 839 24.78 9.2 48.5 33 -6.1 21.1
12:50 1010 29.83 839 24.78 8 46.3 37 -5.7 21.7
12:55 1010 29.83 839 24.78 7.4 45.3 36 -6.8 19.8
13:00 1010 29.83 839 24.78 8.4 47.1 36 -5.7 21.8
13:05 1010 29.83 839 24.78 9.1 48.5 35 -5.4 22.3
13:10 1010 29.83 839 24.78 8.7 47.6 37 -5.2 22.6
13:15 1010 29.83 839 24.78 9.3 48.7 37 -4.7 23.5
13:20 1010 29.83 839 24.78 10 50 36 -4.2 24.4
13:25 1010 29.83 839 24.78 9.9 49.8 33 -5.7 21.8
13:30 1010 29.83 839 24.78 9.6 49.2 36 -4.7 23.5
13:35 1010 29.83 839 24.78 10.1 50.2 33 -5.5 22
13:40 1010 29.83 839 24.78 9.5 49 35 -5.3 22.4
13:45 1009 29.8 839 24.78 9.4 49 35 -5.3 22.5
13:50 1009 29.8 839 24.78 9.9 49.8 34 -5.3 22.4
13:55 1009 29.8 839 24.78 9.4 48.9 37 -4.5 23.9
14:00 1009 29.8 839 24.78 10.1 50.2 34 -5.2 22.7
14:05 1009 29.8 839 24.78 10.5 50.9 31 -5.9 21.3
14:10 1009 29.8 839 24.78 10.7 51.3 32 -5.2 22.7
14:15 1009 29.8 839 24.78 10.4 50.7 31 -6.1 21
14:20 1009 29.8 838 24.75 10.4 50.6 33 -5.2 22.6
14:25 1009 29.8 838 24.75 10.8 51.4 31 -5.8 21.6
14:30 1009 29.8 838 24.75 11.1 51.9 32 -5.1 22.8
14:35 1009 29.8 838 24.75 11.1 52.1 32 -5 23.1
14:40 1009 29.8 838 24.75 10.2 50.3 33 -5.5 22.1
14:45 1009 29.8 838 24.75 10.3 50.6 32 -5.8 21.5
14:50 1009 29.8 838 24.75 10.4 50.6 29 -6.9 19.5
14:55 1009 29.8 838 24.75 10.4 50.7 30 -6.3 20.6
15:00 1009 29.8 838 24.75 9.3 48.7 33 -6.3 20.6
15:05 1009 29.8 838 24.75 9.1 48.3 32 -6.8 19.8
15:10 1009 29.8 838 24.75 10.4 50.7 31 -5.8 21.6
15:15 1009 29.8 838 24.75 11.1 52 28 -6.5 20.2
15:20 1009 29.8 838 24.75 11.2 52.2 27 -7.2 19.1
15:25 1009 29.8 838 24.75 10.2 50.3 31 -6 21.2
15:30 1009 29.8 838 24.75 9.6 49.3 32 -6.3 20.6
15:35 1009 29.8 838 24.75 9.7 49.4 30 -7 19.4
15:40 1009 29.8 838 24.75 9.8 49.6 29 -7.3 18.9
15:45 1009 29.8 838 24.75 10 49.9 31 -6.4 20.4
15:50 1009 29.8 838 24.75 10.1 50.2 28 -7.4 18.7
15:55 1009 29.8 838 24.75 10.4 50.7 28 -7.1 19.1
16:00 1009 29.8 838 24.75 10.7 51.2 29 -6.7 20
16:05 1009 29.8 838 24.75 10.4 50.8 29 -6.8 19.8
16:10 1009 29.8 838 24.75 10.7 51.3 30 -6.1 21.1
16:15 1009 29.8 838 24.75 10.9 51.5 30 -6.1 20.9
16:20 1009 29.8 838 24.75 10.7 51.3 29 -6.5 20.4
16:25 1009 29.8 838 24.75 11 51.8 29 -6.3 20.7
16:30 1009 29.8 838 24.75 10.8 51.5 30 -6.2 20.8
16:35 1009 29.8 838 24.75 10.9 51.6 29 -6.4 20.5
16:40 1009 29.8 838 24.75 10.9 51.5 32 -5.3 22.4
16:45 1009 29.8 838 24.75 10.1 50.3 32 -5.9 21.4
16:50 1009 29.8 838 24.75 10.5 50.9 30 -6.2 20.9
16:55 1009 29.8 838 24.75 10.4 50.8 31 -6 21.1
17:00 1009 29.8 838 24.75 10.5 50.9 31 -5.8 21.5
17:05 1009 29.8 838 24.75 10.4 50.8 32 -5.7 21.7
17:10 1009 29.8 838 24.75 10.3 50.5 32 -5.6 21.9
17:15 1009 29.8 838 24.75 10.3 50.6 33 -5.4 22.3
17:20 1009 29.8 838 24.75 10.4 50.7 32 -5.5 22.1
17:25 1009 29.8 838 24.75 9.9 49.9 33 -5.4 22.3
17:30 1009 29.8 838 24.75 8.7 47.7 36 -5.5 22.1
17:35 1009 29.8 838 24.75 8.2 46.7 36 -5.9 21.4
17:40 1009 29.8 838 24.75 7.9 46.3 39 -5.2 22.6
17:45 1009 29.8 838 24.75 7.5 45.5 39 -5.6 22
17:50 1009 29.8 838 24.75 7.7 45.9 38 -5.8 21.5
17:55 1009 29.8 838 24.75 7.8 46 39 -5.3 22.4
18:00 1009 29.8 838 24.75 8 46.5 36 -6.1 21.1
18:05 1009 29.8 838 24.75 7.9 46.2 37 -5.9 21.4
18:10 1009 29.8 838 24.75 7.9 46.2 37 -6 21.2
18:15 1009 29.8 838 24.75 7.7 45.8 37 -6 21.3
18:20 1009 29.8 838 24.75 7.5 45.4 39 -5.5 22
18:25 1009 29.8 838 24.75 6.9 44.5 41 -5.4 22.3
18:30 1009 29.8 838 24.75 7.1 44.8 37 -6.6 20.1
18:35 1009 29.8 838 24.75 7.6 45.6 37 -6.1 21
18:40 1009 29.8 838 24.75 7.7 45.8 40 -5.2 22.7
18:45 1009 29.8 838 24.75 7.5 45.6 39 -5.6 21.9
18:50 1009 29.8 838 24.75 7.2 44.9 41 -5.2 22.6
18:55 1009 29.8 839 24.78 6.8 44.2 42 -5.1 22.8
19:00 1009 29.8 839 24.78 6.7 44 45 -4.4 24.1
19:05 1009 29.8 839 24.78 6.1 42.9 47 -4.5 23.9
19:10 1009 29.8 839 24.78 5.8 42.5 46 -4.9 23.2
19:15 1009 29.8 839 24.78 5.9 42.5 49 -4.1 24.6
19:20 1010 29.83 839 24.78 5.3 41.5 50 -4.2 24.4
19:25 1010 29.83 839 24.78 5 41 52 -4 24.7
19:30 1010 29.83 839 24.78 4.6 40.2 53 -4.3 24.3
19:35 1010 29.83 839 24.78 4.4 40 53 -4.3 24.3
19:40 1010 29.83 839 24.78 4.3 39.8 54 -4.1 24.6
19:45 1010 29.83 839 24.78 3.9 39 56 -4 24.7
19:50 1010 29.83 839 24.78 3.6 38.4 57 -4.2 24.5
19:55 1010 29.83 839 24.78 3.6 38.4 58 -4 24.9
20:00 1010 29.83 839 24.78 3.6 38.4 56 -4.3 24.2
20:05 1010 29.83 839 24.78 4.2 39.5 53 -4.6 23.8
20:10 1010 29.83 839 24.78 4.3 39.7 54 -4.2 24.4
20:15 1010 29.83 839 24.78 4.3 39.7 55 -3.9 25
20:20 1010 29.83 839 24.78 4.4 40 54 -4 24.7
20:25 1010 29.83 839 24.78 4.6 40.2 54 -4 24.8
20:30 1010 29.83 839 24.78 4.5 40.1 55 -3.7 25.3
20:35 1010 29.83 839 24.78 4.4 39.8 54 -4.1 24.7
20:40 1010 29.83 839 24.78 4.4 40 52 -4.5 23.9
20:45 1010 29.83 839 24.78 4.7 40.5 52 -4.2 24.5
20:50 1010 29.83 839 24.78 4.3 39.8 54 -4.1 24.5
20:55 1010 29.83 839 24.78 4.4 39.8 55 -3.8 25.1
21:00 1010 29.83 839 24.78 4.4 39.8 53 -4.3 24.2
21:05 1010 29.83 839 24.78 4.4 40 51 -4.7 23.5
21:10 1010 29.83 839 24.78 4.7 40.5 49 -5.1 22.9
21:15 1010 29.83 839 24.78 4.9 40.9 50 -4.6 23.6
21:20 1010 29.83 839 24.78 4.7 40.5 50 -4.7 23.6
21:25 1010 29.83 839 24.78 4.8 40.6 48 -5.2 22.6
21:30 1010 29.83 839 24.78 5 41 51 -4.3 24.3
21:35 1010 29.83 839 24.78 4.6 40.2 52 -4.4 24.1
21:40 1010 29.83 839 24.78 4 39.3 55 -4.2 24.5
21:45 1010 29.83 839 24.78 3.7 38.6 56 -4.3 24.2
21:50 1010 29.83 839 24.78 3.7 38.7 55 -4.5 23.9
21:55 1010 29.83 839 24.78 4 39.2 51 -5.1 22.8
22:00 1010 29.83 839 24.78 4.1 39.3 52 -4.9 23.1
22:05 1010 29.83 839 24.78 3.9 39 53 -4.8 23.4
22:10 1010 29.83 839 24.78 3.6 38.6 53 -5.2 22.7
22:15 1010 29.83 839 24.78 3.5 38.4 53 -5.2 22.6
22:20 1010 29.83 839 24.78 3.3 38 53 -5.3 22.4
22:25 1010 29.83 839 24.78 2.8 37.1 55 -5.4 22.3
22:30 1010 29.83 839 24.78 2.5 36.6 55 -5.6 22
22:35 1010 29.83 839 24.78 2.7 36.9 52 -6.1 21.1
22:40 1010 29.83 839 24.78 3.1 37.6 50 -6.3 20.7
22:45 1010 29.83 839 24.78 3.2 37.7 50 -6.2 20.8
22:50 1010 29.83 839 24.78 3.4 38.1 47 -6.9 19.5
22:55 1010 29.83 839 24.78 3.8 38.8 46 -6.7 19.9
23:00 1010 29.83 839 24.78 3.7 38.7 47 -6.5 20.4
23:05 1010 29.83 839 24.78 3.4 38.2 49 -6.3 20.6
23:10 1010 29.83 839 24.78 3.1 37.6 51 -6.1 21.1
23:15 1010 29.83 839 24.78 2.5 36.6 52 -6.4 20.5
23:20 1010 29.83 839 24.78 2.2 36 55 -6 21.2
23:25 1010 29.83 839 24.78 1.7 35.1 56 -6 21.1
23:30 1010 29.83 839 24.78 1.5 34.7 56 -6.3 20.7
23:35 1010 29.83 839 24.78 2.1 35.8 53 -6.5 20.3
23:40 1010 29.83 839 24.78 2.1 35.9 53 -6.4 20.5
23:45 1010 29.83 839 24.78 2.4 36.4 51 -6.8 19.7
23:50 1010 29.83 839 24.78 2.6 36.7 50 -6.8 19.8
23:55 1010 29.83 839 24.78 2.4 36.4 51 -6.7 20
24:00 1010 29.83 839 24.78 2.4 36.3 53 -6.2 20.8